Cambridge, MA (02140)

11:51 AM EST on March 06, 2015 (GMT -0500)
Porter Square | Change Station
CLOSE
Current Station
Personal Weather Station
Location: Cambridge, MA
Elevation: 47 ft
Nearby Weather Stations

Elev 47 ft 42.39 °N, 71.12 °W | Updated 6 minutes ago

Clear
Clear
21.7 °F
Feels Like 22 °F
N
0.0
Wind Variable Wind from North
Gusts 0.0 mph

Today
High -- | Low -- °F
--% Chance of Precip.
Yesterday
High -- | Low -- °F
Precip. -- in
6:12 AM 5:40 PM
Full, 99% visible
Pressure 30.50 in
Visibility 10.0 miles
Clouds Few 5000 ft
Windchill 22 °F
Dew Point -7 °F
Humidity 27%
Rainfall in
Snow Depth Not available.
UV 5 out of 12
Pollen .50 out of 12
Air Quality Not available.
Flu Activity Not available.
METAR KBOS 061554Z 00000KT 10SM FEW050 M07/M21 A3050 RMK AO2 SLP328 T10671206

More Conditions Fewer Conditions

Pressure 30.50 in
Visibility 10.0 miles
Clouds Few 5000 ft
Windchill 22 °F
Dew Point -7 °F
Humidity 27%
Rainfall in
Snow Depth Not available.
UV 5 out of 12
Pollen .50 out of 12
Air Quality Not available.
Flu Activity Not available.
METAR KBOS 061554Z 00000KT 10SM FEW050 M07/M21 A3050 RMK AO2 SLP328 T10671206

More Conditions Fewer Conditions

10-Day Weather Forecast

Almanac

Astronomy

Mar. 06, 2015 Rise Set
Actual Time
Civil Twilight
Nautical Twilight
Astronomical Twilight
Moon
Length of Visible Light
Length of Day
Tomorrow will be .
, % of the Moon is Illuminated

Today's Extremes

State Highs State Lows

Community

WunderPhotos

Upload Photos

1,803,336 photos uploaded!

WunderBlogs® & News

Nearby

Air Quality

  Air Quality AQ Index Pollutant
Not available.

Snow Depth

Station Depth Elevation

Earthquake Activity

City Distance Mag. Time & Date
Minimum magnitude displayed is 2.5.

Coastal Water Temperatures

Place Temperature

Nearby Weather Stations